createdAt,value
2022-09-03T00:00:11.645Z,2.20
2022-09-03T00:03:04.505Z,1.98
2022-09-03T00:05:41.670Z,1.85
2022-09-03T00:08:40.846Z,2.10
2022-09-03T00:11:22.077Z,1.90
2022-09-03T00:13:58.905Z,2.10
2022-09-03T00:16:30.922Z,1.92
2022-09-03T00:19:01.670Z,1.95
2022-09-03T00:21:38.152Z,2.00
2022-09-03T00:24:10.904Z,1.98
2022-09-03T00:26:45.345Z,2.00
2022-09-03T00:29:20.102Z,2.13
2022-09-03T00:31:52.594Z,2.30
2022-09-03T00:34:31.362Z,1.75
2022-09-03T00:36:58.493Z,1.85
2022-09-03T00:39:27.221Z,1.95
2022-09-03T00:42:35.854Z,1.90
2022-09-03T00:45:21.479Z,2.10
2022-09-03T00:48:02.758Z,1.77
2022-09-03T00:50:39.264Z,2.00
2022-09-03T00:53:24.551Z,2.10
2022-09-03T00:56:16.151Z,2.00
2022-09-03T00:59:07.560Z,2.08
2022-09-03T01:02:06.199Z,1.90
2022-09-03T01:04:35.739Z,1.85
2022-09-03T01:07:09.148Z,1.90
2022-09-03T01:09:49.024Z,1.85
2022-09-03T01:12:20.191Z,1.63
2022-09-03T01:15:12.786Z,1.83
2022-09-03T01:18:10.814Z,2.00
2022-09-03T01:20:46.583Z,2.08
2022-09-03T01:23:35.946Z,1.90
2022-09-03T01:26:28.844Z,2.08
2022-09-03T01:29:05.615Z,2.00
2022-09-03T01:32:01.130Z,2.00
2022-09-03T01:35:15.788Z,1.83
2022-09-03T01:38:23.586Z,2.05
2022-09-03T01:41:44.703Z,1.95
2022-09-03T01:44:16.810Z,1.90
2022-09-03T01:46:46.111Z,1.80
2022-09-03T01:49:23.882Z,1.90
2022-09-03T01:52:13.649Z,2.00
2022-09-03T01:54:53.504Z,1.98
2022-09-03T01:57:41.931Z,2.00
2022-09-03T02:00:20.513Z,2.30
2022-09-03T02:02:51.421Z,1.92
2022-09-03T02:05:24.925Z,1.75
2022-09-03T02:07:57.781Z,2.20
2022-09-03T02:10:44.873Z,1.60
2022-09-03T02:13:20.911Z,1.88
2022-09-03T02:15:50.559Z,1.92
2022-09-03T02:18:23.266Z,2.00
2022-09-03T02:20:52.391Z,2.10
2022-09-03T02:23:27.521Z,1.95
2022-09-03T02:26:01.297Z,1.88
2022-09-03T02:28:32.529Z,2.08
2022-09-03T02:30:59.620Z,1.90
2022-09-03T02:33:26.856Z,1.80
2022-09-03T02:35:54.373Z,2.13
2022-09-03T02:38:25.707Z,1.90
2022-09-03T02:40:54.461Z,2.00
2022-09-03T02:43:50.618Z,1.98
2022-09-03T02:46:30.112Z,1.85
2022-09-03T02:48:57.175Z,1.90
2022-09-03T02:51:24.937Z,2.08
2022-09-03T02:53:53.643Z,2.05
2022-09-03T02:56:24.434Z,2.05
2022-09-03T02:58:51.400Z,1.85
2022-09-03T03:01:23.946Z,1.85
2022-09-03T03:03:51.422Z,1.98
2022-09-03T03:06:20.555Z,2.00
2022-09-03T03:08:51.755Z,2.00
2022-09-03T03:11:19.394Z,2.10
2022-09-03T03:13:46.970Z,2.08
2022-09-03T03:16:15.416Z,2.65
2022-09-03T03:18:42.631Z,1.88
2022-09-03T03:21:19.171Z,2.10
2022-09-03T03:23:45.943Z,1.60
2022-09-03T03:26:18.553Z,1.90
2022-09-03T03:28:46.916Z,2.13
2022-09-03T03:31:16.825Z,2.00
2022-09-03T03:33:44.058Z,1.95
2022-09-03T03:36:15.636Z,1.92
2022-09-03T03:38:44.597Z,1.95
2022-09-03T03:41:32.158Z,2.28
2022-09-03T03:44:05.763Z,2.58
2022-09-03T03:46:38.254Z,1.70
2022-09-03T03:49:08.905Z,2.10
2022-09-03T03:51:37.185Z,2.30
2022-09-03T03:54:05.449Z,2.10
2022-09-03T03:56:32.710Z,1.85
2022-09-03T03:58:59.787Z,1.90
2022-09-03T04:01:28.223Z,2.00
2022-09-03T04:03:56.299Z,1.75
2022-09-03T04:06:26.516Z,1.90
2022-09-03T04:08:53.398Z,1.90
2022-09-03T04:11:22.213Z,1.90
2022-09-03T04:13:50.158Z,2.10
2022-09-03T04:16:24.995Z,1.98
2022-09-03T04:18:52.551Z,1.80
2022-09-03T04:21:25.376Z,1.80
2022-09-03T04:23:54.972Z,1.90
2022-09-03T04:26:26.012Z,1.90
2022-09-03T04:28:52.826Z,1.67
2022-09-03T04:31:20.932Z,2.05
2022-09-03T04:33:47.664Z,2.05
2022-09-03T04:36:17.025Z,2.03
2022-09-03T04:38:45.877Z,2.00
2022-09-03T04:41:15.565Z,1.88
2022-09-03T04:43:43.545Z,1.90
2022-09-03T04:46:17.770Z,1.90
2022-09-03T04:49:05.203Z,2.13
2022-09-03T04:51:32.429Z,2.22
2022-09-03T04:54:01.332Z,2.03
2022-09-03T04:56:34.030Z,1.90
2022-09-03T04:59:06.400Z,2.00
2022-09-03T05:01:35.175Z,2.08
2022-09-03T05:04:02.746Z,1.85
2022-09-03T05:06:31.480Z,1.70
2022-09-03T05:09:00.004Z,1.80
2022-09-03T05:11:29.689Z,1.80
2022-09-03T05:13:58.914Z,2.10
2022-09-03T05:16:28.390Z,2.05
2022-09-03T05:18:59.588Z,1.90
2022-09-03T05:21:27.146Z,1.90
2022-09-03T05:23:53.924Z,2.10
2022-09-03T05:26:30.672Z,1.67
2022-09-03T05:29:01.016Z,1.80
2022-09-03T05:33:59.770Z,2.13
2022-09-03T05:36:31.848Z,1.90
2022-09-03T05:39:00.407Z,1.77
2022-09-03T05:41:28.963Z,1.83
2022-09-03T05:43:59.126Z,1.77
2022-09-03T05:46:34.076Z,2.17
2022-09-03T05:49:02.301Z,1.80
2022-09-03T05:51:36.288Z,1.80
2022-09-03T05:54:03.909Z,1.90
2022-09-03T05:56:33.424Z,1.75
2022-09-03T05:59:02.093Z,2.07
2022-09-03T06:01:34.556Z,2.17
2022-09-03T06:04:04.510Z,2.10
2022-09-03T06:06:36.153Z,1.83
2022-09-03T06:09:11.873Z,1.80
2022-09-03T06:11:40.349Z,2.35
2022-09-03T06:14:09.718Z,1.75
2022-09-03T06:16:39.117Z,1.95
2022-09-03T06:19:10.344Z,1.87
2022-09-03T06:21:40.550Z,2.00
2022-09-03T06:24:13.271Z,2.10
2022-09-03T06:26:42.959Z,2.00
2022-09-03T06:29:19.168Z,1.95
2022-09-03T06:31:48.569Z,1.85
2022-09-03T06:34:18.588Z,2.97
2022-09-03T06:36:46.216Z,1.80
2022-09-03T06:39:15.030Z,1.75
2022-09-03T06:41:41.733Z,1.65
2022-09-03T06:44:11.963Z,1.88
2022-09-03T06:46:42.768Z,1.52
2022-09-03T06:49:10.147Z,1.80
2022-09-03T06:51:50.335Z,1.75
2022-09-03T06:54:28.165Z,1.77
2022-09-03T06:56:54.874Z,1.90
2022-09-03T06:59:22.692Z,1.70
2022-09-03T07:01:49.587Z,1.98
2022-09-03T07:04:17.014Z,1.70
2022-09-03T07:06:47.419Z,1.80
2022-09-03T07:09:15.881Z,2.00
2022-09-03T07:11:48.039Z,1.60
2022-09-03T07:14:17.382Z,2.00
2022-09-03T07:16:44.230Z,1.70
2022-09-03T07:19:13.330Z,1.60
2022-09-03T07:21:49.134Z,2.00
2022-09-03T07:24:17.050Z,1.58
2022-09-03T07:26:47.315Z,1.83
2022-09-03T07:31:44.077Z,1.67
2022-09-03T07:34:13.018Z,1.90
2022-09-03T07:36:42.872Z,1.70
2022-09-03T07:39:11.623Z,1.83
2022-09-03T07:41:38.908Z,1.50
2022-09-03T07:44:05.943Z,1.70
2022-09-03T07:46:35.692Z,1.35
2022-09-03T07:49:03.135Z,1.40
2022-09-03T07:51:33.543Z,1.60
2022-09-03T07:54:02.705Z,2.10
2022-09-03T07:56:32.908Z,1.40
2022-09-03T08:01:28.848Z,1.90
2022-09-03T08:03:56.247Z,1.58
2022-09-03T08:06:27.531Z,1.65
2022-09-03T08:09:04.485Z,1.50
2022-09-03T08:11:35.168Z,1.60
2022-09-03T08:14:06.535Z,1.30
2022-09-03T08:16:36.498Z,1.60
2022-09-03T08:19:03.489Z,1.52
2022-09-03T08:21:30.597Z,1.65
2022-09-03T08:24:03.079Z,1.50
2022-09-03T08:26:32.132Z,1.67
2022-09-03T08:28:59.735Z,1.40
2022-09-03T08:31:28.099Z,1.42
2022-09-03T08:33:56.725Z,1.45
2022-09-03T08:36:26.911Z,1.50
2022-09-03T08:41:43.606Z,1.55
2022-09-03T08:44:28.195Z,1.52
2022-09-03T08:47:10.163Z,1.90
2022-09-03T08:50:03.162Z,1.65
2022-09-03T08:52:34.988Z,1.92
2022-09-03T08:55:27.940Z,1.80
2022-09-03T08:58:09.451Z,2.05
2022-09-03T09:01:01.491Z,1.65
2022-09-03T09:03:35.459Z,1.92
2022-09-03T09:06:17.064Z,1.60
2022-09-03T09:09:02.456Z,1.60
2022-09-03T09:11:57.010Z,1.45
2022-09-03T09:14:37.020Z,1.50
2022-09-03T09:17:20.100Z,1.40
2022-09-03T09:19:55.647Z,1.60
2022-09-03T09:22:47.365Z,1.67
2022-09-03T09:25:19.643Z,1.75
2022-09-03T09:27:59.846Z,1.85
2022-09-03T09:32:56.223Z,1.38
2022-09-03T09:35:23.619Z,1.60
2022-09-03T09:37:58.597Z,1.38
2022-09-03T09:40:33.199Z,1.38
2022-09-03T09:43:11.967Z,1.60
2022-09-03T09:45:40.850Z,1.38
2022-09-03T09:48:17.898Z,1.40
2022-09-03T09:50:45.052Z,1.77
2022-09-03T09:53:16.382Z,1.30
2022-09-03T09:55:58.194Z,1.83
2022-09-03T09:58:28.420Z,1.30
2022-09-03T10:03:29.858Z,1.50
2022-09-03T10:06:41.483Z,1.60
2022-09-03T10:09:15.988Z,1.30
2022-09-03T10:11:55.995Z,1.58
2022-09-03T10:14:28.527Z,1.60
2022-09-03T10:17:19.836Z,1.55
2022-09-03T10:20:15.645Z,1.27
2022-09-03T10:22:56.479Z,1.50
2022-09-03T10:25:29.170Z,1.48
2022-09-03T10:27:57.100Z,1.48
2022-09-03T10:30:26.635Z,1.40
2022-09-03T10:33:15.656Z,1.52
2022-09-03T10:35:54.128Z,1.50
2022-09-03T10:38:26.847Z,1.50
2022-09-03T10:41:24.087Z,1.50
2022-09-03T10:44:12.904Z,1.30
2022-09-03T10:47:01.370Z,1.33
2022-09-03T10:50:10.254Z,1.20
2022-09-03T10:53:08.029Z,1.50
2022-09-03T10:55:52.135Z,1.50
2022-09-03T10:58:40.963Z,1.38
2022-09-03T11:01:24.812Z,1.25
2022-09-03T11:04:15.187Z,1.42
2022-09-03T11:07:09.453Z,1.90
2022-09-03T11:09:54.069Z,1.33
2022-09-03T11:12:27.080Z,1.63
2022-09-03T11:15:04.152Z,1.45
2022-09-03T11:17:40.188Z,1.52
2022-09-03T11:20:06.967Z,1.38
2022-09-03T11:22:34.978Z,1.40
2022-09-03T11:25:03.918Z,1.40
2022-09-03T11:27:42.925Z,1.40
2022-09-03T11:30:14.991Z,1.33
2022-09-03T11:32:52.985Z,1.67
2022-09-03T11:35:31.717Z,1.40
2022-09-03T11:38:02.451Z,1.50
2022-09-03T11:40:38.641Z,1.50
2022-09-03T11:43:06.705Z,1.52
2022-09-03T11:45:33.428Z,1.40
2022-09-03T11:48:00.340Z,1.45
2022-09-03T11:50:31.416Z,1.50
2022-09-03T11:53:28.255Z,1.50
2022-09-03T11:56:21.104Z,1.45
2022-09-03T11:59:03.330Z,1.27
2022-09-03T12:01:32.003Z,1.52
2022-09-03T12:04:05.146Z,1.30
2022-09-03T12:06:55.774Z,1.33
2022-09-03T12:10:03.674Z,1.48
2022-09-03T12:13:01.247Z,1.40
2022-09-03T12:15:47.764Z,1.50
2022-09-03T12:18:19.118Z,1.27
2022-09-03T12:21:03.020Z,1.48
2022-09-03T12:23:58.457Z,1.40
2022-09-03T12:26:27.499Z,1.70
2022-09-03T12:28:56.778Z,1.80
2022-09-03T12:31:30.443Z,1.30
2022-09-03T12:34:00.893Z,1.88
2022-09-03T12:36:38.610Z,1.60
2022-09-03T12:39:13.644Z,1.30
2022-09-03T12:41:59.195Z,1.60
2022-09-03T12:44:47.460Z,1.70
2022-09-03T12:47:37.042Z,2.05
2022-09-03T12:53:02.561Z,1.40
2022-09-03T12:55:49.953Z,1.58
2022-09-03T12:58:24.266Z,1.50
2022-09-03T13:00:56.990Z,1.50
2022-09-03T13:03:29.506Z,1.30
2022-09-03T13:06:01.723Z,1.40
2022-09-03T13:08:41.603Z,1.60
2022-09-03T13:11:08.651Z,1.63
2022-09-03T13:13:37.171Z,1.45
2022-09-03T13:16:32.695Z,1.50
2022-09-03T13:19:12.186Z,1.50
2022-09-03T13:21:50.775Z,1.55
2022-09-03T13:24:39.147Z,1.70
2022-09-03T13:27:22.965Z,1.63
2022-09-03T13:30:11.777Z,1.40
2022-09-03T13:32:51.192Z,1.60
2022-09-03T13:35:20.976Z,1.58
2022-09-03T13:38:26.309Z,1.60
2022-09-03T13:41:01.387Z,1.40
2022-09-03T13:43:37.625Z,1.50
2022-09-03T13:46:11.475Z,1.35
2022-09-03T13:49:01.756Z,1.42
2022-09-03T13:54:42.465Z,1.60
2022-09-03T13:57:35.256Z,1.42
2022-09-03T14:00:14.177Z,1.40
2022-09-03T14:02:52.069Z,1.40
2022-09-03T14:05:56.545Z,1.90
2022-09-03T14:08:35.402Z,1.50
2022-09-03T14:11:29.648Z,1.85
2022-09-03T14:14:06.172Z,1.90
2022-09-03T14:16:49.996Z,1.40
2022-09-03T14:19:40.296Z,1.85
2022-09-03T14:22:20.886Z,2.13
2022-09-03T14:25:16.963Z,1.70
2022-09-03T14:27:43.964Z,1.50
2022-09-03T14:30:16.796Z,1.65
2022-09-03T14:32:46.672Z,1.60
2022-09-03T14:35:32.404Z,1.55
2022-09-03T14:38:11.360Z,1.63
2022-09-03T14:40:43.056Z,1.63
2022-09-03T14:43:45.885Z,1.80
2022-09-03T14:46:45.852Z,1.73
2022-09-03T14:49:45.376Z,1.80
2022-09-03T14:52:41.126Z,1.45
2022-09-03T14:55:19.789Z,1.63
2022-09-03T14:58:01.745Z,1.63
2022-09-03T15:00:36.852Z,1.50
2022-09-03T15:03:18.500Z,2.10
2022-09-03T15:06:03.639Z,1.80
2022-09-03T15:08:54.387Z,2.05
2022-09-03T15:11:28.941Z,1.60
2022-09-03T15:14:14.942Z,1.70
2022-09-03T15:16:59.771Z,1.52
2022-09-03T15:19:47.073Z,1.80
2022-09-03T15:23:03.608Z,1.70
2022-09-03T15:25:42.203Z,1.80
2022-09-03T15:28:39.675Z,1.88
2022-09-03T15:31:44.224Z,1.92
2022-09-03T15:34:36.166Z,1.98
2022-09-03T15:37:12.740Z,1.60
2022-09-03T15:39:44.420Z,1.90
2022-09-03T15:42:23.015Z,1.90
2022-09-03T15:44:54.957Z,1.98
2022-09-03T15:47:51.708Z,2.08
2022-09-03T15:50:48.787Z,1.77
2022-09-03T15:53:26.018Z,1.90
2022-09-03T15:56:38.056Z,1.70
2022-09-03T15:59:34.536Z,1.90
2022-09-03T16:02:27.136Z,1.90
2022-09-03T16:05:07.469Z,1.70
2022-09-03T16:07:37.359Z,2.08
2022-09-03T16:10:24.554Z,1.92
2022-09-03T16:13:30.523Z,1.65
2022-09-03T16:16:06.168Z,1.98
2022-09-03T16:18:56.404Z,1.77
2022-09-03T16:24:19.379Z,2.00
2022-09-03T16:27:24.045Z,2.28
2022-09-03T16:29:58.929Z,2.22
2022-09-03T16:32:57.732Z,2.10
2022-09-03T16:35:35.945Z,1.85
2022-09-03T16:38:28.525Z,2.13
2022-09-03T16:41:30.479Z,2.20
2022-09-03T16:44:36.210Z,2.10
2022-09-03T16:47:12.634Z,2.40
2022-09-03T16:50:01.215Z,2.30
2022-09-03T16:53:05.607Z,2.10
2022-09-03T16:55:57.362Z,2.30
2022-09-03T16:58:43.077Z,2.20
2022-09-03T17:01:17.092Z,2.03
2022-09-03T17:03:58.140Z,1.90
2022-09-03T17:06:35.875Z,2.10
2022-09-03T17:09:08.541Z,1.90
2022-09-03T17:11:43.178Z,2.08
2022-09-03T17:14:45.786Z,1.80
2022-09-03T17:17:24.606Z,2.65
2022-09-03T17:20:05.798Z,2.78
2022-09-03T17:23:16.515Z,2.83
2022-09-03T17:26:05.627Z,3.00
2022-09-03T17:29:14.806Z,2.70
2022-09-03T17:31:55.147Z,2.55
2022-09-03T17:34:32.644Z,3.00
2022-09-03T17:37:16.519Z,3.08
2022-09-03T17:40:04.853Z,2.80
2022-09-03T17:43:16.977Z,2.78
2022-09-03T17:46:02.689Z,2.55
2022-09-03T17:48:51.920Z,2.80
2022-09-03T17:51:32.454Z,2.90
2022-09-03T17:54:24.860Z,3.03
2022-09-03T17:56:52.708Z,3.05
2022-09-03T17:59:42.875Z,3.17
2022-09-03T18:05:18.055Z,3.42
2022-09-03T18:08:05.380Z,3.03
2022-09-03T18:11:03.353Z,3.00
2022-09-03T18:13:51.777Z,3.00
2022-09-03T18:16:28.960Z,3.08
2022-09-03T18:19:19.268Z,2.50
2022-09-03T18:25:00.507Z,3.10
2022-09-03T18:28:05.007Z,2.97
2022-09-03T18:30:52.424Z,3.08
2022-09-03T18:33:43.953Z,3.30
2022-09-03T18:36:31.411Z,3.83
2022-09-03T18:39:43.184Z,3.70
2022-09-03T18:42:34.771Z,3.00
2022-09-03T18:46:45.926Z,3.35
2022-09-03T18:49:30.010Z,2.92
2022-09-03T18:52:24.156Z,3.10
2022-09-03T18:55:15.341Z,2.85
2022-09-03T18:58:06.820Z,3.10
2022-09-03T19:00:59.682Z,3.05
2022-09-03T19:04:03.936Z,3.65
2022-09-03T19:07:12.537Z,3.55
2022-09-03T19:10:17.522Z,3.45
2022-09-03T19:13:27.927Z,3.38
2022-09-03T19:16:16.014Z,3.38
2022-09-03T19:19:22.644Z,3.63
2022-09-03T19:22:25.810Z,3.28
2022-09-03T19:25:19.823Z,3.22
2022-09-03T19:28:33.273Z,3.78
2022-09-03T19:31:41.219Z,4.07
2022-09-03T19:34:45.990Z,3.72
2022-09-03T19:37:51.332Z,4.05
2022-09-03T19:40:39.619Z,4.07
2022-09-03T19:43:36.990Z,4.20
2022-09-03T19:46:44.371Z,4.20
2022-09-03T19:50:05.403Z,4.45
2022-09-03T19:53:13.056Z,4.20
2022-09-03T19:56:07.713Z,4.00
2022-09-03T19:58:56.993Z,4.38
2022-09-03T20:01:48.008Z,4.80
2022-09-03T20:04:34.539Z,4.50
2022-09-03T20:07:26.788Z,4.90
2022-09-03T20:10:16.491Z,4.35
2022-09-03T20:12:52.820Z,4.82
2022-09-03T20:15:22.492Z,4.40
2022-09-03T20:17:52.387Z,4.88
2022-09-03T20:20:28.368Z,4.85
2022-09-03T20:23:04.283Z,4.90
2022-09-03T20:25:36.852Z,4.80
2022-09-03T20:28:31.234Z,4.57
2022-09-03T20:31:15.592Z,4.80
2022-09-03T20:34:01.302Z,4.70
2022-09-03T20:36:41.093Z,4.63
2022-09-03T20:39:32.793Z,5.40
2022-09-03T20:42:02.855Z,5.05
2022-09-03T20:44:48.431Z,6.00
2022-09-03T20:47:57.131Z,6.25
2022-09-03T20:50:36.826Z,6.68
2022-09-03T20:53:43.463Z,6.65
2022-09-03T20:56:18.360Z,6.25
2022-09-03T20:58:47.393Z,5.97
2022-09-03T21:01:27.863Z,5.75
2022-09-03T21:04:04.337Z,5.90
2022-09-03T21:06:50.328Z,5.90
2022-09-03T21:09:38.341Z,5.80
2022-09-03T21:12:34.158Z,5.53
2022-09-03T21:15:37.190Z,5.75
2022-09-03T21:18:20.400Z,5.57
2022-09-03T21:21:01.506Z,6.22
2022-09-03T21:23:40.122Z,5.60
2022-09-03T21:26:21.434Z,5.35
2022-09-03T21:29:03.769Z,4.88
2022-09-03T21:31:41.857Z,5.32
2022-09-03T21:34:21.315Z,5.28
2022-09-03T21:36:49.882Z,5.30
2022-09-03T21:39:30.861Z,6.05
2022-09-03T21:42:30.933Z,5.50
2022-09-03T21:45:07.602Z,5.55
2022-09-03T21:47:40.745Z,6.25
2022-09-03T21:50:22.358Z,5.05
2022-09-03T21:52:55.732Z,4.70
2022-09-03T21:56:06.246Z,4.93
2022-09-03T21:58:38.859Z,5.05
2022-09-03T22:01:17.963Z,5.70
2022-09-03T22:03:44.685Z,6.20
2022-09-03T22:06:26.792Z,5.45
2022-09-03T22:09:04.279Z,5.43
2022-09-03T22:11:47.846Z,5.20
2022-09-03T22:14:17.360Z,5.68
2022-09-03T22:17:02.845Z,5.80
2022-09-03T22:19:37.408Z,6.45
2022-09-03T22:22:08.254Z,6.43
2022-09-03T22:24:40.577Z,6.07
2022-09-03T22:27:31.498Z,5.38
2022-09-03T22:30:10.833Z,5.63
2022-09-03T22:32:43.105Z,5.07
2022-09-03T22:35:19.650Z,5.40
2022-09-03T22:38:09.507Z,5.70
2022-09-03T22:40:52.483Z,5.22
2022-09-03T22:43:36.627Z,5.40
2022-09-03T22:46:12.339Z,5.60
2022-09-03T22:48:57.075Z,5.30
2022-09-03T22:51:24.418Z,5.00
2022-09-03T22:54:14.632Z,5.13
2022-09-03T22:56:41.967Z,5.35
2022-09-03T22:59:23.793Z,5.05
2022-09-03T23:02:08.676Z,5.00
2022-09-03T23:04:44.110Z,5.40
2022-09-03T23:07:22.263Z,5.03
2022-09-03T23:09:58.373Z,4.97
2022-09-03T23:12:44.920Z,5.10
2022-09-03T23:15:23.193Z,5.13
2022-09-03T23:18:17.829Z,4.93
2022-09-03T23:21:12.421Z,5.32
2022-09-03T23:23:50.485Z,5.28
2022-09-03T23:26:41.146Z,5.63
2022-09-03T23:29:41.869Z,5.18
2022-09-03T23:32:11.636Z,5.40
2022-09-03T23:34:40.665Z,5.15
2022-09-03T23:37:33.001Z,4.78
2022-09-03T23:39:56.832Z,5.27
2022-09-03T23:42:32.835Z,5.38
2022-09-03T23:45:25.017Z,5.85
2022-09-03T23:48:24.511Z,4.80
2022-09-03T23:51:16.120Z,5.45
2022-09-03T23:54:17.813Z,5.15
2022-09-03T23:57:03.699Z,4.85
